sensor_id;sensor_type;location;lat;lon;timestamp;temperature;humidity
21001;DHT22;10658;50.920;12.238;2022-09-03T00:02:24;11.50;99.90
21001;DHT22;10658;50.920;12.238;2022-09-03T00:06:48;11.50;99.90
21001;DHT22;10658;50.920;12.238;2022-09-03T00:15:08;11.50;99.90
21001;DHT22;10658;50.920;12.238;2022-09-03T00:19:16;11.50;99.90
21001;DHT22;10658;50.920;12.238;2022-09-03T00:23:22;11.50;99.90
21001;DHT22;10658;50.920;12.238;2022-09-03T00:27:26;11.30;99.90
21001;DHT22;10658;50.920;12.238;2022-09-03T00:31:29;11.20;99.90
21001;DHT22;10658;50.920;12.238;2022-09-03T00:39:55;11.10;99.90
21001;DHT22;10658;50.920;12.238;2022-09-03T01:00:44;10.90;99.90
21001;DHT22;10658;50.920;12.238;2022-09-03T01:05:10;11.00;99.90
21001;DHT22;10658;50.920;12.238;2022-09-03T01:13:55;10.90;99.90
21001;DHT22;10658;50.920;12.238;2022-09-03T01:18:19;11.10;99.90
21001;DHT22;10658;50.920;12.238;2022-09-03T01:27:24;11.50;99.90
21001;DHT22;10658;50.920;12.238;2022-09-03T01:31:42;11.60;99.90
21001;DHT22;10658;50.920;12.238;2022-09-03T01:35:48;11.70;99.90
21001;DHT22;10658;50.920;12.238;2022-09-03T01:48:37;11.90;99.90
21001;DHT22;10658;50.920;12.238;2022-09-03T01:52:42;11.90;99.90
21001;DHT22;10658;50.920;12.238;2022-09-03T02:01:04;12.10;99.90
21001;DHT22;10658;50.920;12.238;2022-09-03T02:05:11;12.20;99.90
21001;DHT22;10658;50.920;12.238;2022-09-03T02:09:16;12.20;99.90
21001;DHT22;10658;50.920;12.238;2022-09-03T02:17:25;12.10;99.90
21001;DHT22;10658;50.920;12.238;2022-09-03T02:21:33;12.10;99.90
21001;DHT22;10658;50.920;12.238;2022-09-03T02:25:39;12.10;99.90
21001;DHT22;10658;50.920;12.238;2022-09-03T02:29:42;12.10;99.90
21001;DHT22;10658;50.920;12.238;2022-09-03T02:33:46;12.10;99.90
21001;DHT22;10658;50.920;12.238;2022-09-03T02:37:48;12.00;99.90
21001;DHT22;10658;50.920;12.238;2022-09-03T02:41:55;12.10;99.90
21001;DHT22;10658;50.920;12.238;2022-09-03T02:46:01;12.00;99.90
21001;DHT22;10658;50.920;12.238;2022-09-03T02:50:03;12.10;99.90
21001;DHT22;10658;50.920;12.238;2022-09-03T02:54:05;12.10;99.90
21001;DHT22;10658;50.920;12.238;2022-09-03T02:58:06;12.10;99.90
21001;DHT22;10658;50.920;12.238;2022-09-03T03:02:09;12.10;99.90
21001;DHT22;10658;50.920;12.238;2022-09-03T03:06:11;12.10;99.90
21001;DHT22;10658;50.920;12.238;2022-09-03T03:10:13;12.10;99.90
21001;DHT22;10658;50.920;12.238;2022-09-03T03:14:16;12.20;99.90
21001;DHT22;10658;50.920;12.238;2022-09-03T03:18:17;12.20;99.90
21001;DHT22;10658;50.920;12.238;2022-09-03T03:22:18;12.20;99.90
21001;DHT22;10658;50.920;12.238;2022-09-03T03:26:21;12.00;99.90
21001;DHT22;10658;50.920;12.238;2022-09-03T03:30:23;12.00;99.90
21001;DHT22;10658;50.920;12.238;2022-09-03T03:34:24;11.90;99.90
21001;DHT22;10658;50.920;12.238;2022-09-03T03:38:25;11.80;99.90
21001;DHT22;10658;50.920;12.238;2022-09-03T03:42:26;11.60;99.90
21001;DHT22;10658;50.920;12.238;2022-09-03T03:46:33;11.40;99.90
21001;DHT22;10658;50.920;12.238;2022-09-03T03:50:36;11.40;99.90
21001;DHT22;10658;50.920;12.238;2022-09-03T03:54:38;11.30;99.90
21001;DHT22;10658;50.920;12.238;2022-09-03T03:58:40;11.30;99.90
21001;DHT22;10658;50.920;12.238;2022-09-03T04:02:44;11.30;99.90
21001;DHT22;10658;50.920;12.238;2022-09-03T04:06:46;11.20;99.90
21001;DHT22;10658;50.920;12.238;2022-09-03T04:10:48;11.20;99.90
21001;DHT22;10658;50.920;12.238;2022-09-03T04:14:52;11.20;99.90
21001;DHT22;10658;50.920;12.238;2022-09-03T04:18:54;11.00;99.90
21001;DHT22;10658;50.920;12.238;2022-09-03T04:22:59;11.00;99.90
21001;DHT22;10658;50.920;12.238;2022-09-03T04:27:00;10.90;99.90
21001;DHT22;10658;50.920;12.238;2022-09-03T04:31:07;10.90;99.90
21001;DHT22;10658;50.920;12.238;2022-09-03T04:35:08;10.90;99.90
21001;DHT22;10658;50.920;12.238;2022-09-03T04:39:10;10.90;99.90
21001;DHT22;10658;50.920;12.238;2022-09-03T04:43:11;10.80;99.90
21001;DHT22;10658;50.920;12.238;2022-09-03T04:47:12;10.80;99.90
21001;DHT22;10658;50.920;12.238;2022-09-03T04:51:20;10.80;99.90
21001;DHT22;10658;50.920;12.238;2022-09-03T04:55:22;10.70;99.90
21001;DHT22;10658;50.920;12.238;2022-09-03T04:59:23;10.70;99.90
21001;DHT22;10658;50.920;12.238;2022-09-03T05:03:25;10.70;99.90
21001;DHT22;10658;50.920;12.238;2022-09-03T05:07:26;10.90;99.90
21001;DHT22;10658;50.920;12.238;2022-09-03T05:11:29;11.20;99.90
21001;DHT22;10658;50.920;12.238;2022-09-03T05:15:31;11.50;99.90
21001;DHT22;10658;50.920;12.238;2022-09-03T05:19:36;11.80;99.90
21001;DHT22;10658;50.920;12.238;2022-09-03T05:23:47;12.00;99.90
21001;DHT22;10658;50.920;12.238;2022-09-03T05:27:49;12.30;99.90
21001;DHT22;10658;50.920;12.238;2022-09-03T05:31:49;12.50;99.90
21001;DHT22;10658;50.920;12.238;2022-09-03T05:35:51;12.80;99.90
21001;DHT22;10658;50.920;12.238;2022-09-03T05:39:53;13.20;99.90
21001;DHT22;10658;50.920;12.238;2022-09-03T05:43:55;13.50;99.90
21001;DHT22;10658;50.920;12.238;2022-09-03T05:47:59;13.80;99.90
21001;DHT22;10658;50.920;12.238;2022-09-03T05:52:02;14.30;99.90
21001;DHT22;10658;50.920;12.238;2022-09-03T05:56:06;14.60;99.90
21001;DHT22;10658;50.920;12.238;2022-09-03T06:00:08;15.10;99.90
21001;DHT22;10658;50.920;12.238;2022-09-03T06:04:13;15.40;99.90
21001;DHT22;10658;50.920;12.238;2022-09-03T06:08:14;15.80;99.90
21001;DHT22;10658;50.920;12.238;2022-09-03T06:12:15;16.20;99.90
21001;DHT22;10658;50.920;12.238;2022-09-03T06:16:16;16.70;99.90
21001;DHT22;10658;50.920;12.238;2022-09-03T06:20:18;17.10;99.90
21001;DHT22;10658;50.920;12.238;2022-09-03T06:24:20;17.50;99.90
21001;DHT22;10658;50.920;12.238;2022-09-03T06:28:27;17.90;99.90
21001;DHT22;10658;50.920;12.238;2022-09-03T06:32:28;17.90;99.90
21001;DHT22;10658;50.920;12.238;2022-09-03T06:36:29;18.00;99.90
21001;DHT22;10658;50.920;12.238;2022-09-03T06:40:30;18.10;99.90
21001;DHT22;10658;50.920;12.238;2022-09-03T06:44:31;17.90;99.90
21001;DHT22;10658;50.920;12.238;2022-09-03T06:48:33;18.00;99.90
21001;DHT22;10658;50.920;12.238;2022-09-03T06:52:35;18.10;99.90
21001;DHT22;10658;50.920;12.238;2022-09-03T06:56:38;18.10;99.90
21001;DHT22;10658;50.920;12.238;2022-09-03T07:00:40;18.20;99.90
21001;DHT22;10658;50.920;12.238;2022-09-03T07:04:41;18.50;99.90
21001;DHT22;10658;50.920;12.238;2022-09-03T07:08:44;18.40;99.90
21001;DHT22;10658;50.920;12.238;2022-09-03T07:12:46;17.90;99.90
21001;DHT22;10658;50.920;12.238;2022-09-03T07:16:48;17.50;99.90
21001;DHT22;10658;50.920;12.238;2022-09-03T07:20:49;17.70;99.90
21001;DHT22;10658;50.920;12.238;2022-09-03T07:24:51;18.30;99.90
21001;DHT22;10658;50.920;12.238;2022-09-03T07:28:52;19.10;99.90
21001;DHT22;10658;50.920;12.238;2022-09-03T07:32:54;19.30;99.90
21001;DHT22;10658;50.920;12.238;2022-09-03T07:36:56;19.40;99.90
21001;DHT22;10658;50.920;12.238;2022-09-03T07:40:59;19.60;99.90
21001;DHT22;10658;50.920;12.238;2022-09-03T07:45:01;20.00;99.90
21001;DHT22;10658;50.920;12.238;2022-09-03T07:49:05;20.60;99.90
21001;DHT22;10658;50.920;12.238;2022-09-03T07:53:06;20.60;99.90
21001;DHT22;10658;50.920;12.238;2022-09-03T07:57:07;20.60;99.90
21001;DHT22;10658;50.920;12.238;2022-09-03T08:01:18;20.60;99.90
21001;DHT22;10658;50.920;12.238;2022-09-03T08:05:19;20.50;99.90
21001;DHT22;10658;50.920;12.238;2022-09-03T08:09:21;20.50;99.90
21001;DHT22;10658;50.920;12.238;2022-09-03T08:13:23;20.90;99.90
21001;DHT22;10658;50.920;12.238;2022-09-03T08:17:24;21.10;99.90
21001;DHT22;10658;50.920;12.238;2022-09-03T08:21:26;20.90;99.90
21001;DHT22;10658;50.920;12.238;2022-09-03T08:25:28;21.00;99.90
21001;DHT22;10658;50.920;12.238;2022-09-03T08:29:29;21.10;99.90
21001;DHT22;10658;50.920;12.238;2022-09-03T08:33:31;21.30;99.90
21001;DHT22;10658;50.920;12.238;2022-09-03T08:37:38;21.20;99.90
21001;DHT22;10658;50.920;12.238;2022-09-03T08:45:50;21.50;99.90
21001;DHT22;10658;50.920;12.238;2022-09-03T08:50:21;21.30;99.90
21001;DHT22;10658;50.920;12.238;2022-09-03T08:54:26;21.40;99.90
21001;DHT22;10658;50.920;12.238;2022-09-03T08:58:32;21.40;99.90
21001;DHT22;10658;50.920;12.238;2022-09-03T09:03:45;21.50;99.90
21001;DHT22;10658;50.920;12.238;2022-09-03T09:07:49;21.70;99.90
21001;DHT22;10658;50.920;12.238;2022-09-03T09:16:46;22.20;99.90
21001;DHT22;10658;50.920;12.238;2022-09-03T09:20:49;22.50;99.90
21001;DHT22;10658;50.920;12.238;2022-09-03T09:24:52;22.80;99.90
21001;DHT22;10658;50.920;12.238;2022-09-03T09:29:01;22.60;99.90
21001;DHT22;10658;50.920;12.238;2022-09-03T09:33:05;22.70;99.90
21001;DHT22;10658;50.920;12.238;2022-09-03T09:37:11;23.10;99.90
21001;DHT22;10658;50.920;12.238;2022-09-03T09:41:18;23.80;99.90
21001;DHT22;10658;50.920;12.238;2022-09-03T09:45:22;23.70;99.90
21001;DHT22;10658;50.920;12.238;2022-09-03T09:53:32;23.40;99.90
21001;DHT22;10658;50.920;12.238;2022-09-03T09:57:34;23.00;99.90
21001;DHT22;10658;50.920;12.238;2022-09-03T10:01:43;23.30;99.90
21001;DHT22;10658;50.920;12.238;2022-09-03T10:06:01;23.60;99.90
21001;DHT22;10658;50.920;12.238;2022-09-03T10:10:27;24.10;99.90
21001;DHT22;10658;50.920;12.238;2022-09-03T10:14:35;24.70;99.90
21001;DHT22;10658;50.920;12.238;2022-09-03T10:18:49;25.30;99.90
21001;DHT22;10658;50.920;12.238;2022-09-03T10:22:59;25.20;99.90
21001;DHT22;10658;50.920;12.238;2022-09-03T10:27:03;25.50;99.90
21001;DHT22;10658;50.920;12.238;2022-09-03T10:31:20;25.80;99.90
21001;DHT22;10658;50.920;12.238;2022-09-03T10:35:36;25.60;99.90
21001;DHT22;10658;50.920;12.238;2022-09-03T10:44:14;25.50;99.90
21001;DHT22;10658;50.920;12.238;2022-09-03T10:58:18;24.70;99.90
21001;DHT22;10658;50.920;12.238;2022-09-03T11:07:02;25.60;99.90
21001;DHT22;10658;50.920;12.238;2022-09-03T11:11:16;25.80;99.90
21001;DHT22;10658;50.920;12.238;2022-09-03T11:15:26;25.50;99.90
21001;DHT22;10658;50.920;12.238;2022-09-03T11:19:39;24.90;99.90
21001;DHT22;10658;50.920;12.238;2022-09-03T11:23:44;24.30;99.90
21001;DHT22;10658;50.920;12.238;2022-09-03T11:32:19;24.20;99.90
21001;DHT22;10658;50.920;12.238;2022-09-03T11:36:28;24.40;99.90
21001;DHT22;10658;50.920;12.238;2022-09-03T11:40:58;25.00;99.90
21001;DHT22;10658;50.920;12.238;2022-09-03T11:45:32;25.50;99.90
21001;DHT22;10658;50.920;12.238;2022-09-03T11:49:44;24.60;99.90
21001;DHT22;10658;50.920;12.238;2022-09-03T11:57:55;24.90;99.90
21001;DHT22;10658;50.920;12.238;2022-09-03T12:02:56;25.10;99.90
21001;DHT22;10658;50.920;12.238;2022-09-03T12:20:32;24.90;99.90
21001;DHT22;10658;50.920;12.238;2022-09-03T12:24:34;25.80;99.90
21001;DHT22;10658;50.920;12.238;2022-09-03T12:28:38;25.80;99.90
21001;DHT22;10658;50.920;12.238;2022-09-03T12:32:39;25.30;99.90
21001;DHT22;10658;50.920;12.238;2022-09-03T12:40:43;25.50;99.90
21001;DHT22;10658;50.920;12.238;2022-09-03T12:44:44;26.00;99.90
21001;DHT22;10658;50.920;12.238;2022-09-03T12:49:00;25.70;99.90
21001;DHT22;10658;50.920;12.238;2022-09-03T12:53:29;25.20;99.90
21001;DHT22;10658;50.920;12.238;2022-09-03T12:57:48;25.40;99.90
21001;DHT22;10658;50.920;12.238;2022-09-03T13:01:54;25.40;99.90
21001;DHT22;10658;50.920;12.238;2022-09-03T13:06:07;25.70;99.90
21001;DHT22;10658;50.920;12.238;2022-09-03T13:10:26;26.00;99.90
21001;DHT22;10658;50.920;12.238;2022-09-03T13:14:28;26.40;99.90
21001;DHT22;10658;50.920;12.238;2022-09-03T13:18:32;26.50;99.90
21001;DHT22;10658;50.920;12.238;2022-09-03T13:35:32;25.60;99.90
21001;DHT22;10658;50.920;12.238;2022-09-03T13:39:42;25.30;99.90
21001;DHT22;10658;50.920;12.238;2022-09-03T13:44:07;25.20;99.90
21001;DHT22;10658;50.920;12.238;2022-09-03T13:48:30;25.10;99.90
21001;DHT22;10658;50.920;12.238;2022-09-03T14:19:14;24.30;99.90
21001;DHT22;10658;50.920;12.238;2022-09-03T14:27:33;23.90;99.90
21001;DHT22;10658;50.920;12.238;2022-09-03T14:36:23;24.90;99.90
21001;DHT22;10658;50.920;12.238;2022-09-03T14:45:23;24.60;99.90
21001;DHT22;10658;50.920;12.238;2022-09-03T15:02:36;25.70;99.90
21001;DHT22;10658;50.920;12.238;2022-09-03T15:10:48;25.40;99.90
21001;DHT22;10658;50.920;12.238;2022-09-03T15:14:56;24.90;99.90
21001;DHT22;10658;50.920;12.238;2022-09-03T15:19:12;24.30;99.90
21001;DHT22;10658;50.920;12.238;2022-09-03T15:23:18;23.90;99.90
21001;DHT22;10658;50.920;12.238;2022-09-03T15:36:14;24.30;99.90
21001;DHT22;10658;50.920;12.238;2022-09-03T15:40:39;24.30;99.90
21001;DHT22;10658;50.920;12.238;2022-09-03T15:44:47;23.90;99.90
21001;DHT22;10658;50.920;12.238;2022-09-03T15:49:03;23.20;99.90
21001;DHT22;10658;50.920;12.238;2022-09-03T15:57:27;22.70;99.90
21001;DHT22;10658;50.920;12.238;2022-09-03T16:06:07;22.60;99.90
21001;DHT22;10658;50.920;12.238;2022-09-03T16:10:21;22.40;99.90
21001;DHT22;10658;50.920;12.238;2022-09-03T16:14:34;22.20;99.90
21001;DHT22;10658;50.920;12.238;2022-09-03T16:19:27;22.00;99.90
21001;DHT22;10658;50.920;12.238;2022-09-03T16:23:58;21.80;99.90
21001;DHT22;10658;50.920;12.238;2022-09-03T16:28:09;21.60;99.90
21001;DHT22;10658;50.920;12.238;2022-09-03T16:32:18;21.40;99.90
21001;DHT22;10658;50.920;12.238;2022-09-03T16:40:39;21.10;99.90
21001;DHT22;10658;50.920;12.238;2022-09-03T16:45:23;21.00;99.90
21001;DHT22;10658;50.920;12.238;2022-09-03T17:07:23;20.70;99.90
21001;DHT22;10658;50.920;12.238;2022-09-03T17:15:58;20.60;99.90
21001;DHT22;10658;50.920;12.238;2022-09-03T17:24:42;20.40;99.90
21001;DHT22;10658;50.920;12.238;2022-09-03T17:55:38;19.90;99.90
21001;DHT22;10658;50.920;12.238;2022-09-03T18:00:19;19.80;99.90
21001;DHT22;10658;50.920;12.238;2022-09-03T18:05:17;19.80;99.90
21001;DHT22;10658;50.920;12.238;2022-09-03T18:14:43;19.60;99.90
21001;DHT22;10658;50.920;12.238;2022-09-03T18:18:56;19.60;99.90
21001;DHT22;10658;50.920;12.238;2022-09-03T18:23:09;19.60;99.90
21001;DHT22;10658;50.920;12.238;2022-09-03T18:27:49;19.60;99.90
21001;DHT22;10658;50.920;12.238;2022-09-03T18:32:12;19.60;99.90
21001;DHT22;10658;50.920;12.238;2022-09-03T18:36:31;19.60;99.90
21001;DHT22;10658;50.920;12.238;2022-09-03T18:40:53;19.50;99.90
21001;DHT22;10658;50.920;12.238;2022-09-03T18:50:04;19.50;99.90
21001;DHT22;10658;50.920;12.238;2022-09-03T18:59:20;19.30;99.90
21001;DHT22;10658;50.920;12.238;2022-09-03T19:04:19;19.20;99.90
21001;DHT22;10658;50.920;12.238;2022-09-03T19:08:38;19.20;99.90
21001;DHT22;10658;50.920;12.238;2022-09-03T19:13:19;19.20;99.90
21001;DHT22;10658;50.920;12.238;2022-09-03T19:18:07;19.20;99.90
21001;DHT22;10658;50.920;12.238;2022-09-03T19:22:33;19.20;99.90
21001;DHT22;10658;50.920;12.238;2022-09-03T19:28:00;19.20;99.90
21001;DHT22;10658;50.920;12.238;2022-09-03T19:32:03;19.10;99.90
21001;DHT22;10658;50.920;12.238;2022-09-03T19:41:19;19.00;99.90
21001;DHT22;10658;50.920;12.238;2022-09-03T19:50:20;18.90;99.90
21001;DHT22;10658;50.920;12.238;2022-09-03T19:54:40;18.90;99.90
21001;DHT22;10658;50.920;12.238;2022-09-03T19:59:07;18.70;99.90
21001;DHT22;10658;50.920;12.238;2022-09-03T20:03:28;18.60;99.90
21001;DHT22;10658;50.920;12.238;2022-09-03T20:07:50;18.50;99.90
21001;DHT22;10658;50.920;12.238;2022-09-03T20:12:12;18.40;99.90
21001;DHT22;10658;50.920;12.238;2022-09-03T20:16:20;18.30;99.90
21001;DHT22;10658;50.920;12.238;2022-09-03T20:20:33;18.20;99.90
21001;DHT22;10658;50.920;12.238;2022-09-03T20:50:35;18.00;99.90
21001;DHT22;10658;50.920;12.238;2022-09-03T20:55:14;18.00;99.90
21001;DHT22;10658;50.920;12.238;2022-09-03T21:08:20;17.80;99.90
21001;DHT22;10658;50.920;12.238;2022-09-03T21:25:20;17.90;99.90
21001;DHT22;10658;50.920;12.238;2022-09-03T21:29:27;17.80;99.90
21001;DHT22;10658;50.920;12.238;2022-09-03T21:33:33;17.80;99.90
21001;DHT22;10658;50.920;12.238;2022-09-03T21:37:38;17.70;99.90
21001;DHT22;10658;50.920;12.238;2022-09-03T21:45:57;17.50;99.90
21001;DHT22;10658;50.920;12.238;2022-09-03T21:50:16;17.30;99.90
21001;DHT22;10658;50.920;12.238;2022-09-03T21:54:24;17.30;99.90
21001;DHT22;10658;50.920;12.238;2022-09-03T22:02:45;17.40;99.90
21001;DHT22;10658;50.920;12.238;2022-09-03T22:15:01;17.70;99.90
21001;DHT22;10658;50.920;12.238;2022-09-03T22:19:04;17.70;99.90
21001;DHT22;10658;50.920;12.238;2022-09-03T22:23:13;17.70;99.90
21001;DHT22;10658;50.920;12.238;2022-09-03T22:57:48;17.50;99.90
21001;DHT22;10658;50.920;12.238;2022-09-03T23:02:13;17.60;99.90
21001;DHT22;10658;50.920;12.238;2022-09-03T23:06:28;17.60;99.90
21001;DHT22;10658;50.920;12.238;2022-09-03T23:11:02;17.60;99.90
21001;DHT22;10658;50.920;12.238;2022-09-03T23:15:07;17.60;99.90
21001;DHT22;10658;50.920;12.238;2022-09-03T23:19:21;17.60;99.90
21001;DHT22;10658;50.920;12.238;2022-09-03T23:23:43;17.60;99.90
21001;DHT22;10658;50.920;12.238;2022-09-03T23:28:13;17.50;99.90
21001;DHT22;10658;50.920;12.238;2022-09-03T23:32:18;17.50;99.90
21001;DHT22;10658;50.920;12.238;2022-09-03T23:41:16;17.50;99.90
21001;DHT22;10658;50.920;12.238;2022-09-03T23:45:42;17.60;99.90
21001;DHT22;10658;50.920;12.238;2022-09-03T23:49:50;17.60;99.90
